17:31
Airports
History
Links
Donate
Help keep this website running!
PayPal
Bitcoin
This page is community maintained. The information is intended for PC simulator navigation or reference.
Always use approved charts for navigation.
ENSS
SVARTNES
SVARTNES (ENSS)
Finnmark, Norway (9950)
(C)
Lat/Lng:70° 21' 18.11" N / 31° 2' 45.87" E
70.355031 / 31.046076
Elevation:42'ft / 13mMSL
ID / ICAO:ENSS
Runways:1
Longest:15-33
Asphalt 1,127m / 3,696ft
Controlled:Yes
METAR16:50 GMT 2017-09-21
Altimeter: 30.53
Visibility: 6.2 statute miles
Wind: 12 knots (from 180°)
Temp: 8°c / 46°f
Humidity: 65.8%

METAR: ENSS 211650Z 18012KT 9999 BKN034 08/02 Q1034 RMK WIND 500FT 21020KT

(Powered by phpweather)
Airport Radio Frequencies
Tower: 122.15
Nearby VORs <50NM
Nearby NDBs
Runway 15 / 33
Dimensions:1126.5 x 29.9m 3696' x 98'ft
Surface:Asphalt
Edge Lights:High intensity
Runway 15 [A]Runway 33 [B]
Heading:163°TH 343°TH
Lat:
Lng:
70° 21' 35.57"N
31° 2' 30.29"E
70° 21' 0.66"N
31° 3' 1.46"E
User Notes and Comments
70° 21' 18.11" N / 31° 2' 45.87" E
Distance To
Airport ID:
Nearby Airports
(C) Vadso 34.5 NM
ENVD SW 234°
(C) BATSFJORD 35.5 NM
ENBS WNW 298°
(C) HOYBUKTMOEN 51.3 NM
ENKR SSW 212°
(C) Berlevaag 58.3 NM
ENBV NW 307°
(C) Mehamn 87.0 NM
ENMH WNW 302°
(C) Murmansk 116.2 NM
ULMM ( WX ) SSE 159°
(C) Honningsvaag Valan 124.2 NM
ENHV ( WX ) WNW 291°
VFR Chart
Flight Planning at SkyVector.com